sensor_id;sensor_type;location;lat;lon;timestamp;pressure;altitude;pressure_sealevel;temperature;humidity
62544;BME280;48597;49.030;1.822;2023-12-20T00:01:15;101431.47;;;20.48;41.34
62544;BME280;48597;49.030;1.822;2023-12-20T00:03:40;101443.72;;;20.48;41.14
62544;BME280;48597;49.030;1.822;2023-12-20T00:06:06;101431.84;;;20.50;41.10
62544;BME280;48597;49.030;1.822;2023-12-20T00:08:31;101444.53;;;20.49;41.31
62544;BME280;48597;49.030;1.822;2023-12-20T00:10:56;101443.72;;;20.48;41.00
62544;BME280;48597;49.030;1.822;2023-12-20T00:13:22;101444.53;;;20.49;40.92
62544;BME280;48597;49.030;1.822;2023-12-20T00:15:48;101442.50;;;20.49;41.04
62544;BME280;48597;49.030;1.822;2023-12-20T00:18:13;101440.06;;;20.48;41.09
62544;BME280;48597;49.030;1.822;2023-12-20T00:20:39;101446.59;;;20.48;41.03
62544;BME280;48597;49.030;1.822;2023-12-20T00:23:04;101448.28;;;20.46;41.04
62544;BME280;48597;49.030;1.822;2023-12-20T00:25:30;101453.13;;;20.49;41.08
62544;BME280;48597;49.030;1.822;2023-12-20T00:27:55;101457.25;;;20.48;41.06
62544;BME280;48597;49.030;1.822;2023-12-20T00:30:21;101446.59;;;20.48;41.10
62544;BME280;48597;49.030;1.822;2023-12-20T00:32:46;101458.84;;;20.49;40.99
62544;BME280;48597;49.030;1.822;2023-12-20T00:35:15;101460.47;;;20.50;41.22
62544;BME280;48597;49.030;1.822;2023-12-20T00:37:44;101463.78;;;20.48;41.00
62544;BME280;48597;49.030;1.822;2023-12-20T00:40:10;101471.56;;;20.48;41.02
62544;BME280;48597;49.030;1.822;2023-12-20T00:42:36;101475.22;;;20.48;40.95
62544;BME280;48597;49.030;1.822;2023-12-20T00:45:01;101457.25;;;20.48;41.02
62544;BME280;48597;49.030;1.822;2023-12-20T00:47:27;101457.63;;;20.50;40.99
62544;BME280;48597;49.030;1.822;2023-12-20T00:49:52;101469.94;;;20.47;41.23
62544;BME280;48597;49.030;1.822;2023-12-20T00:52:18;101465.84;;;20.48;41.09
62544;BME280;48597;49.030;1.822;2023-12-20T00:54:44;101476.03;;;20.49;40.91
62544;BME280;48597;49.030;1.822;2023-12-20T00:57:09;101459.22;;;20.51;40.82
62544;BME280;48597;49.030;1.822;2023-12-20T00:59:35;101474.31;;;20.51;40.82
62544;BME280;48597;49.030;1.822;2023-12-20T01:02:01;101475.13;;;20.52;41.01
62544;BME280;48597;49.030;1.822;2023-12-20T01:04:27;101481.34;;;20.50;40.99
62544;BME280;48597;49.030;1.822;2023-12-20T01:06:52;101478.47;;;20.50;40.82
62544;BME280;48597;49.030;1.822;2023-12-20T01:09:18;101473.09;;;20.52;40.86
62544;BME280;48597;49.030;1.822;2023-12-20T01:11:44;101473.88;;;20.53;40.72
62544;BME280;48597;49.030;1.822;2023-12-20T01:14:09;101478.00;;;20.52;40.70
62544;BME280;48597;49.030;1.822;2023-12-20T01:16:34;101468.59;;;20.51;40.93
62544;BME280;48597;49.030;1.822;2023-12-20T01:19:00;101475.13;;;20.52;40.66
62544;BME280;48597;49.030;1.822;2023-12-20T01:21:25;101476.75;;;20.53;40.84
62544;BME280;48597;49.030;1.822;2023-12-20T01:23:51;101474.69;;;20.53;40.87
62544;BME280;48597;49.030;1.822;2023-12-20T01:26:16;101461.19;;;20.54;40.70
62544;BME280;48597;49.030;1.822;2023-12-20T01:28:42;101470.59;;;20.54;40.73
62544;BME280;48597;49.030;1.822;2023-12-20T01:31:08;101469.41;;;20.52;40.81
62544;BME280;48597;49.030;1.822;2023-12-20T01:33:33;101475.50;;;20.54;40.75
62544;BME280;48597;49.030;1.822;2023-12-20T01:35:59;101483.66;;;20.55;40.68
62544;BME280;48597;49.030;1.822;2023-12-20T01:38:24;101484.19;;;20.50;40.62
62544;BME280;48597;49.030;1.822;2023-12-20T01:40:50;101489.84;;;20.54;40.63
62544;BME280;48597;49.030;1.822;2023-12-20T01:43:15;101484.09;;;20.54;40.90
62544;BME280;48597;49.030;1.822;2023-12-20T01:45:40;101482.47;;;20.53;40.54
62544;BME280;48597;49.030;1.822;2023-12-20T01:48:07;101486.97;;;20.54;40.56
62544;BME280;48597;49.030;1.822;2023-12-20T01:50:35;101478.38;;;20.54;40.64
62544;BME280;48597;49.030;1.822;2023-12-20T01:53:02;101484.47;;;20.56;40.71
62544;BME280;48597;49.030;1.822;2023-12-20T01:55:29;101485.34;;;20.53;40.67
62544;BME280;48597;49.030;1.822;2023-12-20T01:57:56;101482.47;;;20.53;40.48
62544;BME280;48597;49.030;1.822;2023-12-20T02:00:23;101489.03;;;20.53;40.47
62544;BME280;48597;49.030;1.822;2023-12-20T02:02:55;101493.94;;;20.53;40.54
62544;BME280;48597;49.030;1.822;2023-12-20T02:05:21;101498.06;;;20.52;40.74
62544;BME280;48597;49.030;1.822;2023-12-20T02:07:47;101494.38;;;20.51;40.53
62544;BME280;48597;49.030;1.822;2023-12-20T02:10:12;101500.09;;;20.51;40.54
62544;BME280;48597;49.030;1.822;2023-12-20T02:12:38;101502.53;;;20.53;40.65
62544;BME280;48597;49.030;1.822;2023-12-20T02:15:04;101512.84;;;20.50;40.64
62544;BME280;48597;49.030;1.822;2023-12-20T02:17:29;101506.31;;;20.50;40.64
62544;BME280;48597;49.030;1.822;2023-12-20T02:19:55;101505.41;;;20.53;40.44
62544;BME280;48597;49.030;1.822;2023-12-20T02:22:20;101506.63;;;20.52;40.61
62544;BME280;48597;49.030;1.822;2023-12-20T02:24:45;101511.13;;;20.53;40.58
62544;BME280;48597;49.030;1.822;2023-12-20T02:27:11;101517.75;;;20.50;40.43
62544;BME280;48597;49.030;1.822;2023-12-20T02:29:37;101517.75;;;20.50;40.64
62544;BME280;48597;49.030;1.822;2023-12-20T02:32:03;101516.13;;;20.49;40.57
62544;BME280;48597;49.030;1.822;2023-12-20T02:34:28;101521.06;;;20.48;40.51
62544;BME280;48597;49.030;1.822;2023-12-20T02:36:54;101525.97;;;20.48;40.44
62544;BME280;48597;49.030;1.822;2023-12-20T02:39:21;101515.31;;;20.48;40.47
62544;BME280;48597;49.030;1.822;2023-12-20T02:41:47;101522.31;;;20.47;40.74
62544;BME280;48597;49.030;1.822;2023-12-20T02:44:12;101515.75;;;20.47;40.62
62544;BME280;48597;49.030;1.822;2023-12-20T02:46:38;101525.16;;;20.47;40.49
62544;BME280;48597;49.030;1.822;2023-12-20T02:49:03;101520.69;;;20.46;40.46
62544;BME280;48597;49.030;1.822;2023-12-20T02:51:29;101519.44;;;20.47;40.41
62544;BME280;48597;49.030;1.822;2023-12-20T02:53:54;101520.25;;;20.48;40.27
62544;BME280;48597;49.030;1.822;2023-12-20T02:56:19;101523.91;;;20.48;40.56
62544;BME280;48597;49.030;1.822;2023-12-20T02:58:45;101517.38;;;20.48;40.50
62544;BME280;48597;49.030;1.822;2023-12-20T03:01:10;101517.38;;;20.48;40.55
62544;BME280;48597;49.030;1.822;2023-12-20T03:03:35;101512.09;;;20.46;40.57
62544;BME280;48597;49.030;1.822;2023-12-20T03:06:01;101512.91;;;20.47;40.36
62544;BME280;48597;49.030;1.822;2023-12-20T03:08:26;101510.47;;;20.45;40.24
62544;BME280;48597;49.030;1.822;2023-12-20T03:10:52;101514.16;;;20.46;40.54
62544;BME280;48597;49.030;1.822;2023-12-20T03:13:18;101504.31;;;20.47;40.41
62544;BME280;48597;49.030;1.822;2023-12-20T03:15:43;101505.56;;;20.46;40.47
62544;BME280;48597;49.030;1.822;2023-12-20T03:18:09;101508.41;;;20.46;40.45
62544;BME280;48597;49.030;1.822;2023-12-20T03:20:34;101510.84;;;20.47;40.31
62544;BME280;48597;49.030;1.822;2023-12-20T03:23:00;101511.66;;;20.48;40.49
62544;BME280;48597;49.030;1.822;2023-12-20T03:25:26;101519.44;;;20.47;40.29
62544;BME280;48597;49.030;1.822;2023-12-20T03:27:52;101521.06;;;20.48;40.42
62544;BME280;48597;49.030;1.822;2023-12-20T03:30:18;101519.44;;;20.47;40.36
62544;BME280;48597;49.030;1.822;2023-12-20T03:32:43;101515.75;;;20.47;40.25
62544;BME280;48597;49.030;1.822;2023-12-20T03:35:09;101510.03;;;20.47;40.34
62544;BME280;48597;49.030;1.822;2023-12-20T03:37:34;101502.25;;;20.47;40.40
62544;BME280;48597;49.030;1.822;2023-12-20T03:40:00;101501.06;;;20.45;40.36
62544;BME280;48597;49.030;1.822;2023-12-20T03:42:25;101504.31;;;20.47;40.41
62544;BME280;48597;49.030;1.822;2023-12-20T03:44:51;101500.63;;;20.46;40.30
62544;BME280;48597;49.030;1.822;2023-12-20T03:47:16;101499.81;;;20.46;40.13
62544;BME280;48597;49.030;1.822;2023-12-20T03:49:41;101509.66;;;20.45;40.21
62544;BME280;48597;49.030;1.822;2023-12-20T03:52:07;101510.03;;;20.47;40.18
62544;BME280;48597;49.030;1.822;2023-12-20T03:54:34;101507.97;;;20.47;40.07
62544;BME280;48597;49.030;1.822;2023-12-20T03:57:00;101505.13;;;20.47;40.27
62544;BME280;48597;49.030;1.822;2023-12-20T03:59:25;101512.91;;;20.47;40.11
62544;BME280;48597;49.030;1.822;2023-12-20T04:01:50;101505.13;;;20.47;40.03
62544;BME280;48597;49.030;1.822;2023-12-20T04:04:16;101510.47;;;20.45;40.22
62544;BME280;48597;49.030;1.822;2023-12-20T04:06:41;101515.75;;;20.47;40.32
62544;BME280;48597;49.030;1.822;2023-12-20T04:09:06;101516.19;;;20.45;40.13
62544;BME280;48597;49.030;1.822;2023-12-20T04:11:34;101519.88;;;20.46;39.97
62544;BME280;48597;49.030;1.822;2023-12-20T04:13:59;101521.94;;;20.45;40.16
62544;BME280;48597;49.030;1.822;2023-12-20T04:16:26;101520.69;;;20.46;40.04
62544;BME280;48597;49.030;1.822;2023-12-20T04:18:51;101511.28;;;20.46;40.03
62544;BME280;48597;49.030;1.822;2023-12-20T04:21:17;101518.63;;;20.47;40.09
62544;BME280;48597;49.030;1.822;2023-12-20T04:23:42;101527.66;;;20.45;39.95
62544;BME280;48597;49.030;1.822;2023-12-20T04:26:07;101526.41;;;20.46;39.98
62544;BME280;48597;49.030;1.822;2023-12-20T04:28:33;101527.22;;;20.47;39.92
62544;BME280;48597;49.030;1.822;2023-12-20T04:30:58;101525.97;;;20.48;40.08
62544;BME280;48597;49.030;1.822;2023-12-20T04:33:23;101512.91;;;20.47;40.15
62544;BME280;48597;49.030;1.822;2023-12-20T04:35:49;101518.63;;;20.47;40.12
62544;BME280;48597;49.030;1.822;2023-12-20T04:38:14;101513.72;;;20.47;40.09
62544;BME280;48597;49.030;1.822;2023-12-20T04:40:40;101514.53;;;20.48;40.13
62544;BME280;48597;49.030;1.822;2023-12-20T04:43:06;101509.59;;;20.48;39.86
62544;BME280;48597;49.030;1.822;2023-12-20T04:45:32;101505.94;;;20.48;39.89
62544;BME280;48597;49.030;1.822;2023-12-20T04:47:57;101507.16;;;20.47;39.71
62544;BME280;48597;49.030;1.822;2023-12-20T04:50:23;101505.56;;;20.46;39.88
62544;BME280;48597;49.030;1.822;2023-12-20T04:52:48;101507.59;;;20.45;40.07
62544;BME280;48597;49.030;1.822;2023-12-20T04:55:14;101509.66;;;20.45;40.00
62544;BME280;48597;49.030;1.822;2023-12-20T04:57:39;101519.44;;;20.47;39.96
62544;BME280;48597;49.030;1.822;2023-12-20T05:00:05;101513.34;;;20.45;39.94
62544;BME280;48597;49.030;1.822;2023-12-20T05:02:31;101515.31;;;20.48;39.91
62544;BME280;48597;49.030;1.822;2023-12-20T05:04:56;101519.44;;;20.47;39.76
62544;BME280;48597;49.030;1.822;2023-12-20T05:07:21;101521.50;;;20.47;39.98
62544;BME280;48597;49.030;1.822;2023-12-20T05:09:47;101518.63;;;20.47;39.99
62544;BME280;48597;49.030;1.822;2023-12-20T05:12:12;101530.88;;;20.47;39.71
62544;BME280;48597;49.030;1.822;2023-12-20T05:14:37;101530.09;;;20.47;39.89
62544;BME280;48597;49.030;1.822;2023-12-20T05:17:03;101532.13;;;20.46;39.73
62544;BME280;48597;49.030;1.822;2023-12-20T05:19:29;101539.09;;;20.45;39.90
62544;BME280;48597;49.030;1.822;2023-12-20T05:21:54;101539.91;;;20.46;39.94
62544;BME280;48597;49.030;1.822;2023-12-20T05:24:19;101541.53;;;20.47;39.73
62544;BME280;48597;49.030;1.822;2023-12-20T05:26:45;101530.09;;;20.47;39.76
62544;BME280;48597;49.030;1.822;2023-12-20T05:29:10;101542.34;;;20.47;39.76
62544;BME280;48597;49.030;1.822;2023-12-20T05:31:35;101534.94;;;20.50;39.88
62544;BME280;48597;49.030;1.822;2023-12-20T05:34:01;101540.28;;;20.48;39.61
62544;BME280;48597;49.030;1.822;2023-12-20T05:36:26;101537.44;;;20.48;39.78
62544;BME280;48597;49.030;1.822;2023-12-20T05:38:51;101537.00;;;20.49;39.81
62544;BME280;48597;49.030;1.822;2023-12-20T05:41:17;101547.25;;;20.47;39.83
62544;BME280;48597;49.030;1.822;2023-12-20T05:43:42;101540.28;;;20.48;39.85
62544;BME280;48597;49.030;1.822;2023-12-20T05:46:10;101538.25;;;20.48;39.66
62544;BME280;48597;49.030;1.822;2023-12-20T05:48:36;101543.16;;;20.48;39.76
62544;BME280;48597;49.030;1.822;2023-12-20T05:51:01;101548.44;;;20.49;39.76
62544;BME280;48597;49.030;1.822;2023-12-20T05:53:27;101546.81;;;20.48;39.73
62544;BME280;48597;49.030;1.822;2023-12-20T05:55:52;101554.19;;;20.49;39.73
62544;BME280;48597;49.030;1.822;2023-12-20T05:58:18;101556.22;;;20.49;39.57
62544;BME280;48597;49.030;1.822;2023-12-20T06:00:43;101559.53;;;20.47;39.74
62544;BME280;48597;49.030;1.822;2023-12-20T06:03:08;101559.53;;;20.47;39.85
62544;BME280;48597;49.030;1.822;2023-12-20T06:05:34;101563.19;;;20.48;39.50
62544;BME280;48597;49.030;1.822;2023-12-20T06:07:59;101561.97;;;20.49;39.67
62544;BME280;48597;49.030;1.822;2023-12-20T06:10:28;101558.28;;;20.48;39.74
62544;BME280;48597;49.030;1.822;2023-12-20T06:12:54;101564.00;;;20.48;39.65
62544;BME280;48597;49.030;1.822;2023-12-20T06:15:21;101566.06;;;20.48;39.58
62544;BME280;48597;49.030;1.822;2023-12-20T06:17:46;101559.97;;;20.46;39.63
62544;BME280;48597;49.030;1.822;2023-12-20T06:20:12;101556.22;;;20.49;39.73
62544;BME280;48597;49.030;1.822;2023-12-20T06:22:38;101563.91;;;20.52;39.47
62544;BME280;48597;49.030;1.822;2023-12-20T06:25:04;101562.78;;;20.49;39.46
62544;BME280;48597;49.030;1.822;2023-12-20T06:27:30;101563.56;;;20.50;39.65
62544;BME280;48597;49.030;1.822;2023-12-20T06:29:57;101561.16;;;20.48;39.58
62544;BME280;48597;49.030;1.822;2023-12-20T06:32:23;101575.47;;;20.48;39.64
62544;BME280;48597;49.030;1.822;2023-12-20T06:34:49;101558.28;;;20.48;39.58
62544;BME280;48597;49.030;1.822;2023-12-20T06:37:14;101559.53;;;20.47;39.67
62544;BME280;48597;49.030;1.822;2023-12-20T06:39:40;101552.56;;;20.48;39.53
62544;BME280;48597;49.030;1.822;2023-12-20T06:42:06;101570.56;;;20.49;39.57
62544;BME280;48597;49.030;1.822;2023-12-20T06:44:31;101568.50;;;20.49;39.67
62544;BME280;48597;49.030;1.822;2023-12-20T06:46:57;101570.97;;;20.47;39.48
62544;BME280;48597;49.030;1.822;2023-12-20T06:49:23;101579.94;;;20.49;39.47
62544;BME280;48597;49.030;1.822;2023-12-20T06:51:48;101579.94;;;20.49;39.52
62544;BME280;48597;49.030;1.822;2023-12-20T06:54:14;101572.59;;;20.48;39.44
62544;BME280;48597;49.030;1.822;2023-12-20T06:56:39;101568.94;;;20.48;39.40
62544;BME280;48597;49.030;1.822;2023-12-20T06:59:04;101566.06;;;20.48;39.55
62544;BME280;48597;49.030;1.822;2023-12-20T07:01:30;101575.09;;;20.46;39.52
62544;BME280;48597;49.030;1.822;2023-12-20T07:03:55;101571.34;;;20.49;39.55
62544;BME280;48597;49.030;1.822;2023-12-20T07:06:20;101580.38;;;20.48;39.34
62544;BME280;48597;49.030;1.822;2023-12-20T07:08:46;101589.34;;;20.50;39.49
62544;BME280;48597;49.030;1.822;2023-12-20T07:11:12;101586.13;;;20.48;39.27
62544;BME280;48597;49.030;1.822;2023-12-20T07:13:37;101586.47;;;20.50;39.48
62544;BME280;48597;49.030;1.822;2023-12-20T07:16:03;101585.69;;;20.49;39.31
62544;BME280;48597;49.030;1.822;2023-12-20T07:18:28;101585.69;;;20.49;39.52
62544;BME280;48597;49.030;1.822;2023-12-20T07:20:54;101591.84;;;20.48;39.49
62544;BME280;48597;49.030;1.822;2023-12-20T07:23:20;101588.97;;;20.48;39.31
62544;BME280;48597;49.030;1.822;2023-12-20T07:25:46;101588.59;;;20.46;39.35
62544;BME280;48597;49.030;1.822;2023-12-20T07:28:12;101589.03;;;20.44;39.26
62544;BME280;48597;49.030;1.822;2023-12-20T07:30:37;101581.69;;;20.43;39.42
62544;BME280;48597;49.030;1.822;2023-12-20T07:33:03;101590.72;;;20.42;39.64
62544;BME280;48597;49.030;1.822;2023-12-20T07:35:28;101584.59;;;20.40;39.70
62544;BME280;48597;49.030;1.822;2023-12-20T07:37:54;101586.66;;;20.39;39.45
62544;BME280;48597;49.030;1.822;2023-12-20T07:40:19;101581.41;;;20.38;39.51
62544;BME280;48597;49.030;1.822;2023-12-20T07:42:44;101587.56;;;20.36;39.67
62544;BME280;48597;49.030;1.822;2023-12-20T07:45:10;101595.75;;;20.34;39.44
62544;BME280;48597;49.030;1.822;2023-12-20T07:47:36;101590.03;;;20.34;39.61
62544;BME280;48597;49.030;1.822;2023-12-20T07:50:02;101585.09;;;20.34;39.49
62544;BME280;48597;49.030;1.822;2023-12-20T07:52:28;101581.84;;;20.32;39.54
62544;BME280;48597;49.030;1.822;2023-12-20T07:54:54;101584.72;;;20.32;39.54
62544;BME280;48597;49.030;1.822;2023-12-20T07:57:19;101584.72;;;20.32;39.45
62544;BME280;48597;49.030;1.822;2023-12-20T07:59:45;101582.66;;;20.33;39.50
62544;BME280;48597;49.030;1.822;2023-12-20T08:02:10;101592.06;;;20.33;39.56
62544;BME280;48597;49.030;1.822;2023-12-20T08:04:35;101602.28;;;20.34;39.29
62544;BME280;48597;49.030;1.822;2023-12-20T08:07:01;101599.00;;;20.36;39.48
62544;BME280;48597;49.030;1.822;2023-12-20T08:09:27;101604.31;;;20.38;39.35
62544;BME280;48597;49.030;1.822;2023-12-20T08:11:52;101607.16;;;20.38;39.25
62544;BME280;48597;49.030;1.822;2023-12-20T08:14:18;101600.16;;;20.39;39.24
62544;BME280;48597;49.030;1.822;2023-12-20T08:16:43;101593.66;;;20.38;39.48
62544;BME280;48597;49.030;1.822;2023-12-20T08:19:08;101601.44;;;20.38;39.38
62544;BME280;48597;49.030;1.822;2023-12-20T08:21:34;101594.00;;;20.40;39.37
62544;BME280;48597;49.030;1.822;2023-12-20T08:23:59;101590.72;;;20.42;39.44
62544;BME280;48597;49.030;1.822;2023-12-20T08:26:26;101594.38;;;20.42;39.50
62544;BME280;48597;49.030;1.822;2023-12-20T08:28:51;101589.91;;;20.41;39.30
62544;BME280;48597;49.030;1.822;2023-12-20T08:31:18;101587.84;;;20.42;39.46
62544;BME280;48597;49.030;1.822;2023-12-20T08:33:48;101586.59;;;20.43;39.52
62544;BME280;48597;49.030;1.822;2023-12-20T08:36:14;101593.50;;;20.45;39.30
62544;BME280;48597;49.030;1.822;2023-12-20T08:38:39;101593.09;;;20.47;39.35
62544;BME280;48597;49.030;1.822;2023-12-20T08:41:07;101607.03;;;20.45;39.37
62544;BME280;48597;49.030;1.822;2023-12-20T08:43:34;101593.09;;;20.47;39.57
62544;BME280;48597;49.030;1.822;2023-12-20T08:46:00;101597.13;;;20.49;39.36
62544;BME280;48597;49.030;1.822;2023-12-20T08:48:26;101598.75;;;20.50;39.30
62544;BME280;48597;49.030;1.822;2023-12-20T08:50:51;101606.53;;;20.50;39.31
62544;BME280;48597;49.030;1.822;2023-12-20T08:53:18;101610.22;;;20.50;39.29
62544;BME280;48597;49.030;1.822;2023-12-20T08:55:44;101604.91;;;20.49;39.57
62544;BME280;48597;49.030;1.822;2023-12-20T08:58:09;101598.75;;;20.50;39.40
62544;BME280;48597;49.030;1.822;2023-12-20T09:00:35;101600.28;;;20.55;39.31
62544;BME280;48597;49.030;1.822;2023-12-20T09:03:01;101609.25;;;20.57;39.25
62544;BME280;48597;49.030;1.822;2023-12-20T09:05:27;101604.34;;;20.57;39.24
62544;BME280;48597;49.030;1.822;2023-12-20T09:07:53;101610.88;;;20.58;39.20
62544;BME280;48597;49.030;1.822;2023-12-20T09:10:19;101590.38;;;20.59;39.42
62544;BME280;48597;49.030;1.822;2023-12-20T09:12:51;101595.75;;;20.57;39.58
62544;BME280;48597;49.030;1.822;2023-12-20T09:15:17;101581.41;;;20.57;39.52
62544;BME280;48597;49.030;1.822;2023-12-20T09:17:42;101578.94;;;20.59;39.85
62544;BME280;48597;49.030;1.822;2023-12-20T09:20:09;101589.56;;;20.59;39.98
62544;BME280;48597;49.030;1.822;2023-12-20T09:22:35;101592.81;;;20.61;39.85
62544;BME280;48597;49.030;1.822;2023-12-20T09:25:00;101577.25;;;20.62;39.97
62544;BME280;48597;49.030;1.822;2023-12-20T09:27:27;101582.97;;;20.62;39.89
62544;BME280;48597;49.030;1.822;2023-12-20T09:29:52;101592.38;;;20.62;39.90
62544;BME280;48597;49.030;1.822;2023-12-20T09:32:18;101592.72;;;20.64;39.82
62544;BME280;48597;49.030;1.822;2023-12-20T09:34:45;101593.09;;;20.66;39.87
62544;BME280;48597;49.030;1.822;2023-12-20T09:37:11;101606.19;;;20.67;39.95
62544;BME280;48597;49.030;1.822;2023-12-20T09:39:36;101602.50;;;20.67;39.99
62544;BME280;48597;49.030;1.822;2023-12-20T09:42:03;101599.19;;;20.68;39.87
62544;BME280;48597;49.030;1.822;2023-12-20T09:44:30;101590.16;;;20.70;39.96
62544;BME280;48597;49.030;1.822;2023-12-20T09:46:56;101600.81;;;20.69;40.00
62544;BME280;48597;49.030;1.822;2023-12-20T09:49:22;101604.50;;;20.70;39.74
62544;BME280;48597;49.030;1.822;2023-12-20T09:51:50;101604.06;;;20.72;39.86
62544;BME280;48597;49.030;1.822;2023-12-20T09:54:20;101596.72;;;20.71;39.82
62544;BME280;48597;49.030;1.822;2023-12-20T09:56:46;101606.13;;;20.71;39.82
62544;BME280;48597;49.030;1.822;2023-12-20T09:59:12;101600.38;;;20.71;39.79
62544;BME280;48597;49.030;1.822;2023-12-20T10:01:41;101600.75;;;20.73;39.98
62544;BME280;48597;49.030;1.822;2023-12-20T10:04:09;101604.81;;;20.76;39.57
62544;BME280;48597;49.030;1.822;2023-12-20T10:06:36;101601.50;;;20.77;39.53
62544;BME280;48597;49.030;1.822;2023-12-20T10:09:02;101592.91;;;20.77;39.63
62544;BME280;48597;49.030;1.822;2023-12-20T10:11:27;101587.63;;;20.76;39.67
62544;BME280;48597;49.030;1.822;2023-12-20T10:13:59;101584.31;;;20.77;39.59
62544;BME280;48597;49.030;1.822;2023-12-20T10:16:26;101576.97;;;20.76;39.53
62544;BME280;48597;49.030;1.822;2023-12-20T10:18:55;101579.84;;;20.76;39.34
62544;BME280;48597;49.030;1.822;2023-12-20T10:21:22;101585.09;;;20.78;39.48
62544;BME280;48597;49.030;1.822;2023-12-20T10:23:48;101585.91;;;20.78;39.44
62544;BME280;48597;49.030;1.822;2023-12-20T10:26:27;101578.59;;;20.77;39.18
62544;BME280;48597;49.030;1.822;2023-12-20T10:28:54;101583.50;;;20.77;39.53
62544;BME280;48597;49.030;1.822;2023-12-20T10:31:30;101581.44;;;20.77;39.34
62544;BME280;48597;49.030;1.822;2023-12-20T10:33:57;101593.34;;;20.76;39.41
62544;BME280;48597;49.030;1.822;2023-12-20T10:36:25;101574.22;;;20.69;39.77
62544;BME280;48597;49.030;1.822;2023-12-20T10:38:52;101559.16;;;20.65;40.32
62544;BME280;48597;49.030;1.822;2023-12-20T10:41:25;101559.16;;;20.65;40.20
62544;BME280;48597;49.030;1.822;2023-12-20T10:43:52;101551.03;;;20.63;40.53
62544;BME280;48597;49.030;1.822;2023-12-20T10:46:19;101554.34;;;20.62;40.71
62544;BME280;48597;49.030;1.822;2023-12-20T10:48:45;101556.81;;;20.60;40.44
62544;BME280;48597;49.030;1.822;2023-12-20T10:51:11;101545.38;;;20.60;40.47
62544;BME280;48597;49.030;1.822;2023-12-20T10:53:37;101542.94;;;20.58;40.43
62544;BME280;48597;49.030;1.822;2023-12-20T10:56:05;101539.25;;;20.58;40.54
62544;BME280;48597;49.030;1.822;2023-12-20T10:58:33;101540.50;;;20.57;40.58
62544;BME280;48597;49.030;1.822;2023-12-20T11:01:02;101546.25;;;20.57;40.52
62544;BME280;48597;49.030;1.822;2023-12-20T11:03:32;101543.00;;;20.55;40.54
62544;BME280;48597;49.030;1.822;2023-12-20T11:06:03;101548.78;;;20.51;40.58
62544;BME280;48597;49.030;1.822;2023-12-20T11:11:13;101537.00;;;20.49;40.82
62544;BME280;48597;49.030;1.822;2023-12-20T11:13:44;101537.81;;;20.50;40.79
62544;BME280;48597;49.030;1.822;2023-12-20T11:16:13;101533.31;;;20.49;40.79
62544;BME280;48597;49.030;1.822;2023-12-20T11:18:40;101523.91;;;20.48;40.66
62544;BME280;48597;49.030;1.822;2023-12-20T11:21:06;101528.03;;;20.47;40.74
62544;BME280;48597;49.030;1.822;2023-12-20T11:23:35;101514.53;;;20.48;41.09
62544;BME280;48597;49.030;1.822;2023-12-20T11:26:02;101525.97;;;20.48;40.72
62544;BME280;48597;49.030;1.822;2023-12-20T11:28:28;101524.34;;;20.47;40.85
62544;BME280;48597;49.030;1.822;2023-12-20T11:30:56;101517.00;;;20.46;40.80
62544;BME280;48597;49.030;1.822;2023-12-20T11:33:24;101509.66;;;20.45;40.88
62544;BME280;48597;49.030;1.822;2023-12-20T11:35:50;101514.59;;;20.44;40.83
62544;BME280;48597;49.030;1.822;2023-12-20T11:38:16;101516.63;;;20.44;40.92
62544;BME280;48597;49.030;1.822;2023-12-20T11:40:42;101507.22;;;20.43;40.94
62544;BME280;48597;49.030;1.822;2023-12-20T11:43:08;101497.03;;;20.42;41.07
62544;BME280;48597;49.030;1.822;2023-12-20T11:45:34;101501.50;;;20.43;41.31
62544;BME280;48597;49.030;1.822;2023-12-20T11:48:01;101504.81;;;20.42;40.96
62544;BME280;48597;49.030;1.822;2023-12-20T11:50:27;101508.91;;;20.41;41.13
62544;BME280;48597;49.030;1.822;2023-12-20T11:52:53;101501.56;;;20.40;41.07
62544;BME280;48597;49.030;1.822;2023-12-20T11:55:21;101502.81;;;20.39;41.17
62544;BME280;48597;49.030;1.822;2023-12-20T11:57:46;101506.50;;;20.39;41.39
62544;BME280;48597;49.030;1.822;2023-12-20T12:00:13;101504.44;;;20.40;41.21
62544;BME280;48597;49.030;1.822;2023-12-20T12:02:39;101512.22;;;20.39;41.15
62544;BME280;48597;49.030;1.822;2023-12-20T12:05:05;101506.16;;;20.37;41.09
62544;BME280;48597;49.030;1.822;2023-12-20T12:07:31;101505.34;;;20.37;41.22
62544;BME280;48597;49.030;1.822;2023-12-20T12:09:56;101512.31;;;20.36;41.43
62544;BME280;48597;49.030;1.822;2023-12-20T12:12:24;101506.59;;;20.36;41.16
62544;BME280;48597;49.030;1.822;2023-12-20T12:14:50;101504.13;;;20.34;41.41
62544;BME280;48597;49.030;1.822;2023-12-20T12:17:16;101503.31;;;20.33;41.35
62544;BME280;48597;49.030;1.822;2023-12-20T12:19:42;101506.97;;;20.34;41.35
62544;BME280;48597;49.030;1.822;2023-12-20T12:22:13;101498.84;;;20.32;41.35
62544;BME280;48597;49.030;1.822;2023-12-20T12:24:48;101493.09;;;20.32;41.39
62544;BME280;48597;49.030;1.822;2023-12-20T12:27:14;101482.91;;;20.31;41.29
62544;BME280;48597;49.030;1.822;2023-12-20T12:29:41;101478.78;;;20.32;41.54
62544;BME280;48597;49.030;1.822;2023-12-20T12:32:25;101475.56;;;20.30;41.38
62544;BME280;48597;49.030;1.822;2023-12-20T12:34:50;101468.22;;;20.29;41.64
62544;BME280;48597;49.030;1.822;2023-12-20T12:37:15;101462.91;;;20.28;41.58
62544;BME280;48597;49.030;1.822;2023-12-20T12:39:41;101462.09;;;20.27;41.55
62544;BME280;48597;49.030;1.822;2023-12-20T12:42:06;101464.97;;;20.27;41.39
62544;BME280;48597;49.030;1.822;2023-12-20T12:44:31;101460.50;;;20.26;41.51
62544;BME280;48597;49.030;1.822;2023-12-20T12:46:57;101461.75;;;20.25;41.51